createdAt,value
2018-11-25T00:00:35.152Z,100358.01
2018-11-25T00:03:04.120Z,100358.09
2018-11-25T00:05:33.054Z,100355.42
2018-11-25T00:08:01.992Z,100360.75
2018-11-25T00:10:30.910Z,100361.58
2018-11-25T00:12:59.934Z,100361.29
2018-11-25T00:15:28.847Z,100358.91
2018-11-25T00:17:57.774Z,100348.73
2018-11-25T00:20:26.712Z,100346.86
2018-11-25T00:22:55.656Z,100350.48
2018-11-25T00:25:24.607Z,100342.13
2018-11-25T00:27:53.531Z,100338.19
2018-11-25T00:30:22.467Z,100331.71
2018-11-25T00:32:51.399Z,100324.56
2018-11-25T00:35:20.393Z,100328.17
2018-11-25T00:37:49.316Z,100314.73
2018-11-25T00:40:18.245Z,100306.93
2018-11-25T00:42:47.204Z,100310.70
2018-11-25T00:45:17.366Z,100314.46
2018-11-25T00:47:46.511Z,100305.13
2018-11-25T00:50:15.695Z,100302.83
2018-11-25T00:52:44.621Z,100305.23
2018-11-25T00:55:17.339Z,100290.03
2018-11-25T00:57:46.322Z,100293.33
2018-11-25T01:00:16.652Z,100288.61
2018-11-25T01:02:45.787Z,100284.48
2018-11-25T01:05:14.729Z,100285.77
2018-11-25T01:07:43.659Z,100284.44
2018-11-25T01:10:13.767Z,100287.92
2018-11-25T01:12:42.727Z,100283.28
2018-11-25T01:15:13.606Z,100287.45
2018-11-25T01:17:42.635Z,100288.97
2018-11-25T01:20:13.716Z,100286.91
2018-11-25T01:22:42.725Z,100279.64
2018-11-25T01:25:11.965Z,100287.13
2018-11-25T01:27:40.887Z,100289.23
2018-11-25T01:30:12.424Z,100279.16
2018-11-25T01:32:41.376Z,100281.41
2018-11-25T01:35:11.167Z,100276.53
2018-11-25T01:37:40.155Z,100272.73
2018-11-25T01:40:13.150Z,100273.58
2018-11-25T01:42:42.088Z,100271.76
2018-11-25T01:45:13.271Z,100272.02
2018-11-25T01:47:42.259Z,100272.67
2018-11-25T01:50:15.154Z,100270.03
2018-11-25T01:52:44.152Z,100261.77
2018-11-25T01:55:15.186Z,100258.66
2018-11-25T01:57:44.141Z,100266.03
2018-11-25T02:00:16.241Z,100267.59
2018-11-25T02:02:45.184Z,100273.05
2018-11-25T02:05:14.155Z,100273.61
2018-11-25T02:07:43.090Z,100279.78
2018-11-25T02:10:14.186Z,100279.33
2018-11-25T02:12:43.127Z,100280.18
2018-11-25T02:15:13.007Z,100283.98
2018-11-25T02:17:41.972Z,100280.18
2018-11-25T02:20:14.311Z,100282.48
2018-11-25T02:22:43.272Z,100271.20
2018-11-25T02:25:12.201Z,100274.48
2018-11-25T02:27:41.152Z,100272.86
2018-11-25T02:30:11.642Z,100273.09
2018-11-25T02:32:40.623Z,100284.92
2018-11-25T02:35:10.719Z,100288.34
2018-11-25T02:37:39.671Z,100285.16
2018-11-25T02:40:10.996Z,100285.41
2018-11-25T02:42:40.011Z,100282.03
2018-11-25T02:45:14.314Z,100286.20
2018-11-25T02:47:43.302Z,100286.38
2018-11-25T02:50:32.203Z,100277.60
2018-11-25T02:53:03.566Z,100278.81
2018-11-25T02:55:32.496Z,100273.38
2018-11-25T02:58:01.428Z,100274.35
2018-11-25T03:00:30.384Z,100275.36
2018-11-25T03:02:59.331Z,100273.16
2018-11-25T03:05:28.266Z,100260.08
2018-11-25T03:07:57.190Z,100265.16
2018-11-25T03:10:26.194Z,100258.48
2018-11-25T03:12:55.145Z,100258.39
2018-11-25T03:15:24.119Z,100256.41
2018-11-25T03:17:53.085Z,100250.10
2018-11-25T03:20:22.043Z,100252.41
2018-11-25T03:22:50.982Z,100244.89
2018-11-25T03:25:20.928Z,100245.61
2018-11-25T03:27:49.953Z,100251.92
2018-11-25T03:30:19.836Z,100241.33
2018-11-25T03:32:50.935Z,100239.83
2018-11-25T03:35:19.880Z,100249.25
2018-11-25T03:37:48.804Z,100246.23
2018-11-25T03:40:19.627Z,100243.80
2018-11-25T03:42:48.554Z,100246.94
2018-11-25T03:45:18.429Z,100250.25
2018-11-25T03:47:48.322Z,100245.84
2018-11-25T03:50:17.380Z,100238.69
2018-11-25T03:52:46.311Z,100233.58
2018-11-25T03:55:16.112Z,100233.81
2018-11-25T03:57:45.080Z,100230.69
2018-11-25T04:00:23.279Z,100227.77
2018-11-25T04:02:55.109Z,100230.63
2018-11-25T04:05:24.118Z,100221.84
2018-11-25T04:07:53.075Z,100222.82
2018-11-25T04:10:22.007Z,100229.28
2018-11-25T04:12:51.025Z,100224.11
2018-11-25T04:15:20.342Z,100224.73
2018-11-25T04:17:49.436Z,100228.11
2018-11-25T04:20:21.296Z,100225.55
2018-11-25T04:22:50.609Z,100231.95
2018-11-25T04:25:19.568Z,100222.52
2018-11-25T04:27:48.528Z,100214.07
2018-11-25T04:30:18.247Z,100208.06
2018-11-25T04:32:49.029Z,100207.47
2018-11-25T04:35:18.039Z,100205.66
2018-11-25T04:37:46.967Z,100209.39
2018-11-25T04:40:17.720Z,100201.39
2018-11-25T04:42:46.740Z,100202.38
2018-11-25T04:45:16.369Z,100201.16
2018-11-25T04:47:45.979Z,100203.41
2018-11-25T04:50:20.595Z,100203.88
2018-11-25T04:52:49.639Z,100202.89
2018-11-25T04:55:18.577Z,100197.44
2018-11-25T04:57:53.243Z,100203.97
2018-11-25T05:00:22.215Z,100200.03
2018-11-25T05:02:51.902Z,100194.51
2018-11-25T05:05:20.926Z,100198.73
2018-11-25T05:07:49.850Z,100197.98
2018-11-25T05:10:19.248Z,100200.66
2018-11-25T05:12:48.200Z,100206.53
2018-11-25T05:15:19.033Z,100209.69
2018-11-25T05:17:47.982Z,100213.91
2018-11-25T05:20:17.539Z,100213.56
2018-11-25T05:22:46.468Z,100213.07
2018-11-25T05:25:16.328Z,100216.33
2018-11-25T05:27:45.283Z,100213.98
2018-11-25T05:30:18.915Z,100213.78
2018-11-25T05:32:47.851Z,100201.42
2018-11-25T05:35:17.835Z,100194.34
2018-11-25T05:37:46.783Z,100184.72
2018-11-25T05:40:16.516Z,100190.28
2018-11-25T05:42:45.615Z,100175.75
2018-11-25T05:45:17.179Z,100167.39
2018-11-25T05:47:46.182Z,100158.63
2018-11-25T05:50:16.808Z,100151.19
2018-11-25T05:52:45.763Z,100152.28
2018-11-25T05:55:14.916Z,100150.99
2018-11-25T05:57:43.966Z,100145.49
2018-11-25T06:00:17.089Z,100141.55
2018-11-25T06:02:46.040Z,100134.89
2018-11-25T06:05:14.966Z,100147.86
2018-11-25T06:07:43.924Z,100144.03
2018-11-25T06:10:13.667Z,100143.45
2018-11-25T06:12:42.779Z,100143.62
2018-11-25T06:15:14.467Z,100145.95
2018-11-25T06:17:43.455Z,100150.39
2018-11-25T06:20:14.432Z,100144.61
2018-11-25T06:22:43.500Z,100142.52
2018-11-25T06:25:13.683Z,100140.21
2018-11-25T06:27:42.669Z,100135.37
2018-11-25T06:30:20.156Z,100131.38
2018-11-25T06:32:49.235Z,100138.05
2018-11-25T06:35:19.060Z,100134.53
2018-11-25T06:37:47.991Z,100129.20
2018-11-25T06:40:17.888Z,100124.77
2018-11-25T06:42:46.840Z,100126.17
2018-11-25T06:45:30.226Z,100118.58
2018-11-25T06:47:59.560Z,100127.16
2018-11-25T06:50:28.563Z,100124.00
2018-11-25T06:52:57.488Z,100121.47
2018-11-25T06:55:26.411Z,100128.22
2018-11-25T06:57:55.352Z,100121.59
2018-11-25T07:00:25.272Z,100116.41
2018-11-25T07:02:54.363Z,100113.33
2018-11-25T07:05:23.635Z,100113.33
2018-11-25T07:07:52.590Z,100116.27
2018-11-25T07:10:23.188Z,100112.70
2018-11-25T07:12:55.744Z,100117.19
2018-11-25T07:15:24.675Z,100111.92
2018-11-25T07:17:53.611Z,100106.66
2018-11-25T07:20:22.592Z,100107.38
2018-11-25T07:22:51.524Z,100105.33
2018-11-25T07:25:21.680Z,100100.50
2018-11-25T07:27:50.613Z,100110.28
2018-11-25T07:30:23.594Z,100110.44
2018-11-25T07:32:52.533Z,100106.44
2018-11-25T07:35:21.726Z,100100.63
2018-11-25T07:37:50.686Z,100108.10
2018-11-25T07:40:20.527Z,100098.02
2018-11-25T07:42:49.757Z,100098.53
2018-11-25T07:45:20.475Z,100107.41
2018-11-25T07:47:49.423Z,100100.77
2018-11-25T07:50:18.361Z,100105.55
2018-11-25T07:52:48.030Z,100104.11
2018-11-25T07:55:18.895Z,100101.75
2018-11-25T07:57:48.276Z,100103.38
2018-11-25T08:00:27.034Z,100109.35
2018-11-25T08:02:56.026Z,100101.27
2018-11-25T08:05:26.050Z,100113.28
2018-11-25T08:07:54.966Z,100117.53
2018-11-25T08:10:23.913Z,100113.42
2018-11-25T08:12:52.925Z,100104.67
2018-11-25T08:15:21.938Z,100109.38
2018-11-25T08:17:50.863Z,100110.55
2018-11-25T08:20:20.812Z,100100.41
2018-11-25T08:22:49.815Z,100106.64
2018-11-25T08:25:19.737Z,100110.38
2018-11-25T08:27:48.671Z,100118.20
2018-11-25T08:30:21.589Z,100116.52
2018-11-25T08:32:50.748Z,100101.66
2018-11-25T08:35:19.865Z,100105.33
2018-11-25T08:37:48.799Z,100106.31
2018-11-25T08:40:22.603Z,100103.36
2018-11-25T08:42:51.606Z,100107.64
2018-11-25T08:45:20.555Z,100111.52
2018-11-25T08:47:49.472Z,100108.59
2018-11-25T08:50:19.319Z,100101.11
2018-11-25T08:52:51.340Z,100098.67
2018-11-25T08:55:22.684Z,100100.38
2018-11-25T08:57:51.669Z,100101.66
2018-11-25T09:00:24.346Z,100097.64
2018-11-25T09:02:54.372Z,100096.51
2018-11-25T09:05:23.297Z,100092.54
2018-11-25T09:07:52.265Z,100084.40
2018-11-25T09:10:21.855Z,100088.36
2018-11-25T09:12:55.892Z,100079.84
2018-11-25T09:15:26.044Z,100083.02
2018-11-25T09:17:55.060Z,100076.59
2018-11-25T09:20:23.988Z,100068.77
2018-11-25T09:22:53.403Z,100072.18
2018-11-25T09:25:26.333Z,100070.75
2018-11-25T09:27:55.509Z,100063.61
2018-11-25T09:30:26.322Z,100061.98
2018-11-25T09:32:55.298Z,100057.69
2018-11-25T09:35:24.632Z,100051.99
2018-11-25T09:37:53.591Z,100049.16
2018-11-25T09:40:26.622Z,100045.12
2018-11-25T09:42:55.573Z,100036.21
2018-11-25T09:45:24.488Z,100032.55
2018-11-25T09:47:53.430Z,100026.84
2018-11-25T09:50:23.273Z,100022.48
2018-11-25T09:52:52.304Z,100014.42
2018-11-25T09:55:23.059Z,100017.44
2018-11-25T09:57:55.051Z,100012.38
2018-11-25T10:00:27.280Z,100012.39
2018-11-25T10:02:56.430Z,100008.39
2018-11-25T10:05:25.360Z,99999.98
2018-11-25T10:07:54.342Z,99988.25
2018-11-25T10:10:24.156Z,99991.25
2018-11-25T10:12:53.222Z,99982.86
2018-11-25T10:15:24.073Z,99968.29
2018-11-25T10:17:59.277Z,99959.08
2018-11-25T10:20:23.083Z,99951.02
2018-11-25T10:22:52.021Z,99947.34
2018-11-25T10:25:20.975Z,99940.97
2018-11-25T10:27:49.966Z,99933.92
2018-11-25T10:30:21.800Z,99934.59
2018-11-25T10:32:57.697Z,99934.57
2018-11-25T10:35:26.605Z,99922.81
2018-11-25T10:37:55.553Z,99921.78
2018-11-25T10:40:25.177Z,99917.95
2018-11-25T10:42:54.187Z,99921.83
2018-11-25T10:45:25.901Z,99918.13
2018-11-25T10:47:55.098Z,99918.26
2018-11-25T10:50:24.047Z,99917.03
2018-11-25T10:52:53.031Z,99910.28
2018-11-25T10:55:22.616Z,99912.20
2018-11-25T10:57:53.440Z,99897.75
2018-11-25T11:00:32.426Z,99896.20
2018-11-25T11:03:06.299Z,99897.45
2018-11-25T11:07:44.532Z,99882.66
2018-11-25T11:10:13.451Z,99885.38
2018-11-25T11:12:42.376Z,99875.48
2018-11-25T11:15:12.243Z,99863.72
2018-11-25T11:17:41.184Z,99852.95
2018-11-25T11:20:10.988Z,99848.25
2018-11-25T11:22:39.970Z,99846.41
2018-11-25T11:25:09.707Z,99845.84
2018-11-25T11:27:38.630Z,99852.20
2018-11-25T11:30:10.149Z,99846.56
2018-11-25T11:32:41.589Z,99845.80
2018-11-25T11:35:10.526Z,99844.53
2018-11-25T11:37:39.471Z,99836.73
2018-11-25T11:40:10.796Z,99832.92
2018-11-25T11:42:39.715Z,99831.00
2018-11-25T11:45:11.222Z,99820.59
2018-11-25T11:47:40.204Z,99822.24
2018-11-25T11:50:12.583Z,99823.06
2018-11-25T11:52:41.596Z,99822.78
2018-11-25T11:55:12.682Z,99816.42
2018-11-25T11:57:42.289Z,99816.42
2018-11-25T12:00:28.161Z,99814.62
2018-11-25T12:02:57.161Z,99815.05
2018-11-25T12:05:26.080Z,99809.17
2018-11-25T12:07:55.010Z,99808.41
2018-11-25T12:10:23.957Z,99807.43
2018-11-25T12:12:52.889Z,99809.34
2018-11-25T12:15:30.276Z,99817.09
2018-11-25T12:17:54.226Z,99815.92
2018-11-25T12:20:24.002Z,99821.30
2018-11-25T12:22:53.812Z,99811.23
2018-11-25T12:25:22.786Z,99812.75
2018-11-25T12:27:51.695Z,99810.23
2018-11-25T12:30:20.644Z,99805.88
2018-11-25T12:32:50.686Z,99810.39
2018-11-25T12:35:19.718Z,99808.38
2018-11-25T12:37:48.704Z,99810.39
2018-11-25T12:40:21.574Z,99813.23
2018-11-25T12:42:55.707Z,99805.54
2018-11-25T12:45:24.703Z,99808.89
2018-11-25T12:47:53.644Z,99809.89
2018-11-25T12:50:24.677Z,99809.11
2018-11-25T12:52:53.764Z,99807.47
2018-11-25T12:55:26.592Z,99811.34
2018-11-25T12:57:56.102Z,99809.19
2018-11-25T13:00:36.808Z,99801.42
2018-11-25T13:03:06.596Z,99792.67
2018-11-25T13:05:35.516Z,99782.08
2018-11-25T13:08:04.523Z,99783.37
2018-11-25T13:10:33.447Z,99773.14
2018-11-25T13:13:02.387Z,99773.64
2018-11-25T13:15:31.333Z,99768.28
2018-11-25T13:18:00.272Z,99773.80
2018-11-25T13:20:32.511Z,99774.13
2018-11-25T13:23:01.441Z,99769.80
2018-11-25T13:25:30.387Z,99763.48
2018-11-25T13:27:59.309Z,99760.97
2018-11-25T13:30:29.615Z,99749.79
2018-11-25T13:32:59.816Z,99740.94
2018-11-25T13:35:30.244Z,99736.96
2018-11-25T13:37:59.170Z,99730.11
2018-11-25T13:40:28.171Z,99736.81
2018-11-25T13:42:57.123Z,99729.11
2018-11-25T13:45:26.056Z,99733.13
2018-11-25T13:47:54.990Z,99731.80
2018-11-25T13:50:23.916Z,99724.75
2018-11-25T13:52:52.894Z,99733.44
2018-11-25T13:55:23.456Z,99723.73
2018-11-25T13:57:52.431Z,99721.19
2018-11-25T14:00:24.341Z,99721.48
2018-11-25T14:02:53.347Z,99715.61
2018-11-25T14:05:22.280Z,99715.41
2018-11-25T14:07:51.244Z,99714.73
2018-11-25T14:10:28.588Z,99711.37
2018-11-25T14:12:57.552Z,99701.83
2018-11-25T14:15:26.812Z,99708.48
2018-11-25T14:17:55.737Z,99704.13
2018-11-25T14:20:24.691Z,99699.81
2018-11-25T14:22:53.620Z,99699.41
2018-11-25T14:25:23.380Z,99690.78
2018-11-25T14:27:54.396Z,99687.77
2018-11-25T14:30:25.943Z,99692.61
2018-11-25T14:32:54.871Z,99690.25
2018-11-25T14:35:23.934Z,99696.24
2018-11-25T14:37:52.840Z,99699.86
2018-11-25T14:40:21.796Z,99691.45
2018-11-25T14:42:50.752Z,99692.78
2018-11-25T14:45:19.807Z,99686.70
2018-11-25T14:47:48.790Z,99685.83
2018-11-25T14:50:18.879Z,99691.06
2018-11-25T14:52:49.156Z,99697.58
2018-11-25T14:55:18.351Z,99696.99
2018-11-25T14:57:47.355Z,99696.34
2018-11-25T15:00:21.251Z,99697.88
2018-11-25T15:02:52.579Z,99703.86
2018-11-25T15:05:33.729Z,99705.24
2018-11-25T15:08:02.691Z,99696.50
2018-11-25T15:10:31.650Z,99701.17
2018-11-25T15:13:00.575Z,99696.34
2018-11-25T15:15:29.523Z,99703.22
2018-11-25T15:17:58.446Z,99699.15
2018-11-25T15:20:27.447Z,99689.40
2018-11-25T15:22:58.148Z,99697.75
2018-11-25T15:25:29.827Z,99699.88
2018-11-25T15:27:58.770Z,99696.42
2018-11-25T15:30:27.705Z,99688.36
2018-11-25T15:32:56.667Z,99685.98
2018-11-25T15:35:25.601Z,99683.92
2018-11-25T15:37:55.183Z,99686.00
2018-11-25T15:40:26.602Z,99683.97
2018-11-25T15:42:55.595Z,99680.81
2018-11-25T15:45:24.535Z,99676.31
2018-11-25T15:47:57.769Z,99675.14
2018-11-25T15:50:27.920Z,99667.61
2018-11-25T15:52:56.969Z,99663.45
2018-11-25T15:55:25.956Z,99678.20
2018-11-25T15:57:54.884Z,99674.20
2018-11-25T16:00:24.627Z,99673.84
2018-11-25T16:02:53.622Z,99670.14
2018-11-25T16:05:27.605Z,99667.17
2018-11-25T16:07:56.544Z,99668.86
2018-11-25T16:10:25.519Z,99667.02
2018-11-25T16:12:54.495Z,99660.00
2018-11-25T16:15:24.716Z,99668.85
2018-11-25T16:17:53.631Z,99658.37
2018-11-25T16:20:24.736Z,99657.43
2018-11-25T16:22:55.276Z,99655.95
2018-11-25T16:25:25.826Z,99649.56
2018-11-25T16:27:57.852Z,99649.23
2018-11-25T16:30:26.858Z,99648.88
2018-11-25T16:32:55.786Z,99649.86
2018-11-25T16:35:24.736Z,99665.05
2018-11-25T16:37:53.842Z,99661.55
2018-11-25T16:40:22.779Z,99662.48
2018-11-25T16:42:52.337Z,99656.11
2018-11-25T16:45:21.323Z,99654.38
2018-11-25T16:47:50.336Z,99651.04
2018-11-25T16:50:25.043Z,99650.65
2018-11-25T16:52:48.355Z,99654.35
2018-11-25T16:55:17.302Z,99654.66
2018-11-25T16:57:46.288Z,99659.00
2018-11-25T17:00:17.141Z,99648.67
2018-11-25T17:02:46.139Z,99648.03
2018-11-25T17:05:20.663Z,99641.01
2018-11-25T17:07:51.469Z,99643.33
2018-11-25T17:10:20.477Z,99637.64
2018-11-25T17:12:49.413Z,99630.29
2018-11-25T17:15:23.681Z,99636.02
2018-11-25T17:17:52.591Z,99626.28
2018-11-25T17:20:21.528Z,99614.20
2018-11-25T17:22:50.513Z,99608.53
2018-11-25T17:25:19.447Z,99594.59
2018-11-25T17:27:48.408Z,99584.38
2018-11-25T17:30:20.950Z,99580.56
2018-11-25T17:32:50.213Z,99573.55
2018-11-25T17:35:22.486Z,99574.59
2018-11-25T17:37:52.428Z,99573.30
2018-11-25T17:40:21.353Z,99573.30
2018-11-25T17:42:50.524Z,99580.80
2018-11-25T17:45:19.472Z,99573.98
2018-11-25T17:47:48.421Z,99569.63
2018-11-25T17:50:23.716Z,99569.58
2018-11-25T17:52:52.672Z,99574.48
2018-11-25T17:55:22.698Z,99580.61
2018-11-25T17:57:51.715Z,99570.58
2018-11-25T18:00:41.775Z,99571.92
2018-11-25T18:03:19.832Z,99561.88
2018-11-25T18:05:48.844Z,99558.32
2018-11-25T18:08:17.777Z,99563.38
2018-11-25T18:10:46.715Z,99550.92
2018-11-25T18:13:16.676Z,99556.59
2018-11-25T18:15:45.599Z,99545.52
2018-11-25T18:18:16.331Z,99543.16
2018-11-25T18:20:53.272Z,99547.84
2018-11-25T18:23:22.266Z,99542.50
2018-11-25T18:25:51.547Z,99538.09
2018-11-25T18:28:20.504Z,99525.50
2018-11-25T18:30:49.443Z,99531.03
2018-11-25T18:33:18.404Z,99523.08
2018-11-25T18:35:47.345Z,99520.92
2018-11-25T18:38:16.353Z,99516.07
2018-11-25T18:40:45.296Z,99509.75
2018-11-25T18:43:14.249Z,99506.69
2018-11-25T18:45:43.183Z,99501.41
2018-11-25T18:48:13.659Z,99499.92
2018-11-25T18:50:42.616Z,99491.03
2018-11-25T18:53:12.111Z,99494.74
2018-11-25T18:55:39.576Z,99484.08
2018-11-25T18:58:08.512Z,99474.75
2018-11-25T19:00:50.831Z,99470.20
2018-11-25T19:03:19.791Z,99466.55
2018-11-25T19:05:48.779Z,99470.06
2018-11-25T19:08:17.712Z,99469.41
2018-11-25T19:10:46.659Z,99465.07
2018-11-25T19:13:15.616Z,99459.70
2018-11-25T19:15:44.559Z,99459.05
2018-11-25T19:18:13.579Z,99451.19
2018-11-25T19:20:42.507Z,99452.03
2018-11-25T19:23:11.466Z,99445.02
2018-11-25T19:25:40.390Z,99435.70
2018-11-25T19:28:10.563Z,99437.73
2018-11-25T19:30:39.494Z,99437.72
2018-11-25T19:33:09.852Z,99433.72
2018-11-25T19:35:38.861Z,99430.21
2018-11-25T19:38:08.782Z,99426.72
2018-11-25T19:40:37.738Z,99421.73
2018-11-25T19:43:07.943Z,99407.41
2018-11-25T19:45:36.944Z,99420.73
2018-11-25T19:48:05.971Z,99411.06
2018-11-25T19:50:38.855Z,99403.75
2018-11-25T19:53:09.622Z,99405.13
2018-11-25T19:55:38.683Z,99399.95
2018-11-25T19:58:07.913Z,99395.12
2018-11-25T20:00:36.892Z,99393.94
2018-11-25T20:03:06.210Z,99391.12
2018-11-25T20:05:35.172Z,99385.44
2018-11-25T20:08:04.252Z,99380.10
2018-11-25T20:10:33.192Z,99384.11
2018-11-25T20:13:02.169Z,99393.17
2018-11-25T20:15:31.111Z,99383.31
2018-11-25T20:18:00.054Z,99381.98
2018-11-25T20:20:28.992Z,99375.66
2018-11-25T20:22:57.935Z,99365.98
2018-11-25T20:25:26.900Z,99368.34
2018-11-25T20:27:56.913Z,99363.16
2018-11-25T20:30:26.973Z,99363.80
2018-11-25T20:33:00.895Z,99366.13
2018-11-25T20:35:29.841Z,99361.33
2018-11-25T20:38:03.798Z,99345.33
2018-11-25T20:40:32.916Z,99336.46
2018-11-25T20:43:01.875Z,99327.47
2018-11-25T20:45:39.107Z,99332.84
2018-11-25T20:48:04.900Z,99331.16
2018-11-25T20:50:33.894Z,99324.16
2018-11-25T20:53:07.788Z,99323.01
2018-11-25T20:55:37.314Z,99321.52
2018-11-25T20:58:07.888Z,99325.83
2018-11-25T21:00:36.977Z,99324.80
2018-11-25T21:03:07.554Z,99315.81
2018-11-25T21:05:36.467Z,99317.45
2018-11-25T21:08:05.504Z,99311.62
2018-11-25T21:10:34.446Z,99325.45
2018-11-25T21:13:04.234Z,99317.80
2018-11-25T21:15:33.190Z,99319.81
2018-11-25T21:18:02.119Z,99317.67
2018-11-25T21:20:31.084Z,99314.86
2018-11-25T21:23:00.029Z,99317.14
2018-11-25T21:25:28.988Z,99313.52
2018-11-25T21:27:57.911Z,99314.52
2018-11-25T21:30:27.216Z,99314.33
2018-11-25T21:32:58.003Z,99313.83
2018-11-25T21:35:26.936Z,99304.84
2018-11-25T21:37:55.876Z,99299.63
2018-11-25T21:40:25.658Z,99300.09
2018-11-25T21:42:54.609Z,99296.12
2018-11-25T21:45:23.553Z,99279.97
2018-11-25T21:47:52.506Z,99281.12
2018-11-25T21:50:25.567Z,99283.94
2018-11-25T21:52:54.561Z,99273.43
2018-11-25T21:55:23.660Z,99283.94
2018-11-25T21:57:52.582Z,99275.11
2018-11-25T22:00:24.732Z,99278.77
2018-11-25T22:02:53.710Z,99278.27
2018-11-25T22:05:24.876Z,99273.46
2018-11-25T22:07:51.656Z,99274.80
2018-11-25T22:10:21.287Z,99267.11
2018-11-25T22:12:50.278Z,99265.59
2018-11-25T22:15:23.037Z,99253.44
2018-11-25T22:17:52.052Z,99256.41
2018-11-25T22:20:20.990Z,99267.95
2018-11-25T22:22:49.943Z,99263.45
2018-11-25T22:25:20.131Z,99252.29
2018-11-25T22:27:49.209Z,99249.78
2018-11-25T22:30:25.368Z,99256.63
2018-11-25T22:32:54.314Z,99251.27
2018-11-25T22:35:24.060Z,99246.28
2018-11-25T22:37:52.995Z,99243.14
2018-11-25T22:40:21.915Z,99243.95
2018-11-25T22:42:51.745Z,99241.59
2018-11-25T22:45:22.009Z,99229.73
2018-11-25T22:47:50.936Z,99223.75
2018-11-25T22:50:20.956Z,99226.41
2018-11-25T22:52:50.132Z,99228.92
2018-11-25T22:55:23.499Z,99223.06
2018-11-25T22:57:52.679Z,99231.74
2018-11-25T23:00:25.959Z,99238.75
2018-11-25T23:02:54.903Z,99226.41
2018-11-25T23:05:34.904Z,99224.77
2018-11-25T23:08:04.182Z,99218.41
2018-11-25T23:10:33.223Z,99219.07
2018-11-25T23:13:02.155Z,99218.76
2018-11-25T23:15:31.102Z,99206.58
2018-11-25T23:18:00.035Z,99195.27
2018-11-25T23:20:28.971Z,99200.10
2018-11-25T23:22:57.924Z,99199.77
2018-11-25T23:25:26.859Z,99193.44
2018-11-25T23:27:55.791Z,99200.25
2018-11-25T23:30:24.735Z,99205.92
2018-11-25T23:32:53.671Z,99195.77
2018-11-25T23:35:25.103Z,99185.10
2018-11-25T23:37:54.052Z,99178.23
2018-11-25T23:40:23.000Z,99177.05
2018-11-25T23:42:51.951Z,99161.72
